createdAt,value
2018-03-03T00:00:13.383Z,83.87
2018-03-03T00:02:42.564Z,84.00
2018-03-03T00:05:11.709Z,85.50
2018-03-03T00:07:40.850Z,86.80
2018-03-03T00:10:09.997Z,83.50
2018-03-03T00:12:39.146Z,81.70
2018-03-03T00:15:08.330Z,82.93
2018-03-03T00:17:37.479Z,83.73
2018-03-03T00:20:06.654Z,85.40
2018-03-03T00:22:40.802Z,91.33
2018-03-03T00:25:09.963Z,86.33
2018-03-03T00:27:39.126Z,89.20
2018-03-03T00:30:08.283Z,87.60
2018-03-03T00:32:37.482Z,87.70
2018-03-03T00:35:06.623Z,88.40
2018-03-03T00:37:35.772Z,92.60
2018-03-03T00:40:05.113Z,84.13
2018-03-03T00:42:34.270Z,84.53
2018-03-03T00:45:03.405Z,95.73
2018-03-03T00:47:32.581Z,87.63
2018-03-03T00:50:01.742Z,88.03
2018-03-03T00:52:30.885Z,88.30
2018-03-03T00:55:00.054Z,87.03
2018-03-03T00:57:29.204Z,89.60
2018-03-03T00:59:58.340Z,88.27
2018-03-03T01:02:27.505Z,90.13
2018-03-03T01:04:56.645Z,88.73
2018-03-03T01:07:25.782Z,87.97
2018-03-03T01:09:54.957Z,87.53
2018-03-03T01:12:24.101Z,90.27
2018-03-03T01:14:53.273Z,85.00
2018-03-03T01:17:22.487Z,96.63
2018-03-03T01:19:51.630Z,88.57
2018-03-03T01:22:20.768Z,93.73
2018-03-03T01:24:49.946Z,93.37
2018-03-03T01:27:19.085Z,92.10
2018-03-03T01:29:48.214Z,92.80
2018-03-03T01:32:17.399Z,91.03
2018-03-03T01:34:46.558Z,96.20
2018-03-03T01:37:15.698Z,99.53
2018-03-03T01:39:44.865Z,105.03
2018-03-03T01:42:14.026Z,101.10
2018-03-03T01:44:43.173Z,96.83
2018-03-03T01:47:12.338Z,96.83
2018-03-03T01:49:41.479Z,101.00
2018-03-03T01:52:10.654Z,99.77
2018-03-03T01:54:39.810Z,96.87
2018-03-03T01:57:08.989Z,92.07
2018-03-03T01:59:38.128Z,92.20
2018-03-03T02:02:07.279Z,93.13
2018-03-03T02:04:36.462Z,99.00
2018-03-03T02:07:05.607Z,99.57
2018-03-03T02:09:34.775Z,99.73
2018-03-03T02:12:04.351Z,92.53
2018-03-03T02:14:33.513Z,93.80
2018-03-03T02:17:02.665Z,89.17
2018-03-03T02:19:31.949Z,94.93
2018-03-03T02:22:01.102Z,92.20
2018-03-03T02:24:30.251Z,88.27
2018-03-03T02:26:59.416Z,92.63
2018-03-03T02:29:28.570Z,93.63
2018-03-03T02:31:57.728Z,91.07
2018-03-03T02:34:26.914Z,100.10
2018-03-03T02:36:56.043Z,99.30
2018-03-03T02:39:25.203Z,99.93
2018-03-03T02:41:54.379Z,97.00
2018-03-03T02:44:23.543Z,103.17
2018-03-03T02:46:52.686Z,97.57
2018-03-03T02:49:21.870Z,94.10
2018-03-03T02:51:51.036Z,88.70
2018-03-03T02:54:20.190Z,93.37
2018-03-03T02:56:49.330Z,81.60
2018-03-03T02:59:18.495Z,89.63
2018-03-03T03:01:47.694Z,93.70
2018-03-03T03:04:16.837Z,87.60
2018-03-03T03:06:45.982Z,90.87
2018-03-03T03:09:15.167Z,83.00
2018-03-03T03:11:44.350Z,85.87
2018-03-03T03:14:13.686Z,92.43
2018-03-03T03:16:42.842Z,100.70
2018-03-03T03:19:11.981Z,96.50
2018-03-03T03:21:41.186Z,96.60
2018-03-03T03:24:10.336Z,85.77
2018-03-03T03:26:39.517Z,89.23
2018-03-03T03:29:08.728Z,91.87
2018-03-03T03:31:37.874Z,82.00
2018-03-03T03:34:07.063Z,81.33
2018-03-03T03:36:36.225Z,94.93
2018-03-03T03:39:05.382Z,76.17
2018-03-03T03:41:34.574Z,79.00
2018-03-03T03:44:03.760Z,73.80
2018-03-03T03:46:32.959Z,73.40
2018-03-03T03:49:02.125Z,71.57
2018-03-03T03:51:31.353Z,66.97
2018-03-03T03:54:00.502Z,91.90
2018-03-03T03:56:29.694Z,66.80
2018-03-03T03:58:58.834Z,73.20
2018-03-03T04:01:27.987Z,79.97
2018-03-03T04:03:57.141Z,82.23
2018-03-03T04:06:26.281Z,81.30
2018-03-03T04:08:55.430Z,83.30
2018-03-03T04:11:24.603Z,90.73
2018-03-03T04:13:53.737Z,89.23
2018-03-03T04:16:22.878Z,81.30
2018-03-03T04:18:52.113Z,90.93
2018-03-03T04:21:21.262Z,93.03
2018-03-03T04:23:50.423Z,84.40
2018-03-03T04:26:19.627Z,90.97
2018-03-03T04:28:48.766Z,89.03
2018-03-03T04:31:17.906Z,84.47
2018-03-03T04:33:47.103Z,91.77
2018-03-03T04:36:16.245Z,84.57
2018-03-03T04:38:45.396Z,85.43
2018-03-03T04:41:14.554Z,82.53
2018-03-03T04:43:43.693Z,86.13
2018-03-03T04:46:12.835Z,81.20
2018-03-03T04:48:42.057Z,83.07
2018-03-03T04:51:11.218Z,81.63
2018-03-03T04:53:40.362Z,92.90
2018-03-03T04:56:09.526Z,93.37
2018-03-03T04:58:41.547Z,89.07
2018-03-03T05:01:10.718Z,88.03
2018-03-03T05:03:43.730Z,84.40
2018-03-03T05:06:14.450Z,86.30
2018-03-03T05:08:43.595Z,87.53
2018-03-03T05:11:14.620Z,78.60
2018-03-03T05:13:43.790Z,81.00
2018-03-03T05:16:15.646Z,81.57
2018-03-03T05:19:02.550Z,83.83
2018-03-03T05:21:37.419Z,87.67
2018-03-03T05:24:07.410Z,86.70
2018-03-03T05:26:42.268Z,93.00
2018-03-03T05:29:17.093Z,88.23
2018-03-03T05:32:07.002Z,84.17
2018-03-03T05:34:41.820Z,63.80
2018-03-03T05:37:26.676Z,80.87
2018-03-03T05:39:56.630Z,80.30
2018-03-03T05:42:31.458Z,71.17
2018-03-03T05:45:06.246Z,68.93
2018-03-03T05:47:41.157Z,83.67
2018-03-03T05:50:11.061Z,97.13
2018-03-03T05:52:45.977Z,84.93
2018-03-03T05:58:23.685Z,84.67
2018-03-03T06:00:58.670Z,82.73
2018-03-03T06:03:35.502Z,91.07
2018-03-03T06:06:10.362Z,93.63
2018-03-03T06:08:43.446Z,85.30
2018-03-03T06:11:12.611Z,83.53
2018-03-03T06:13:41.831Z,84.37
2018-03-03T06:16:10.968Z,86.17
2018-03-03T06:18:40.150Z,85.03
2018-03-03T06:21:09.295Z,69.37
2018-03-03T06:23:38.425Z,58.60
2018-03-03T06:26:07.606Z,53.47
2018-03-03T06:28:36.743Z,54.07
2018-03-03T06:31:05.891Z,54.07
2018-03-03T06:33:35.089Z,54.67
2018-03-03T06:36:04.265Z,48.67
2018-03-03T06:38:33.415Z,56.30
2018-03-03T06:41:02.588Z,77.47
2018-03-03T06:43:31.722Z,70.30
2018-03-03T06:46:00.861Z,60.97
2018-03-03T06:48:30.036Z,61.57
2018-03-03T06:50:59.200Z,66.87
2018-03-03T06:53:28.338Z,67.27
2018-03-03T06:55:57.520Z,71.93
2018-03-03T06:58:26.692Z,64.80
2018-03-03T07:00:55.843Z,76.00
2018-03-03T07:03:25.001Z,58.60
2018-03-03T07:05:54.163Z,63.87
2018-03-03T07:08:23.393Z,61.03
2018-03-03T07:10:52.629Z,65.10
2018-03-03T07:13:21.781Z,61.73
2018-03-03T07:15:50.932Z,69.87
2018-03-03T07:18:20.080Z,73.40
2018-03-03T07:20:49.269Z,65.40
2018-03-03T07:23:18.406Z,56.30
2018-03-03T07:25:47.543Z,48.20
2018-03-03T07:28:16.777Z,53.23
2018-03-03T07:30:45.894Z,50.70
2018-03-03T07:33:15.083Z,48.33
2018-03-03T07:35:44.233Z,51.30
2018-03-03T07:38:13.372Z,57.17
2018-03-03T07:40:42.572Z,53.00
2018-03-03T07:43:11.722Z,53.40
2018-03-03T07:45:40.930Z,54.70
2018-03-03T07:48:10.091Z,50.73
2018-03-03T07:50:39.249Z,53.07
2018-03-03T07:53:08.422Z,55.27
2018-03-03T07:55:37.561Z,54.37
2018-03-03T07:58:06.704Z,55.40
2018-03-03T08:00:35.885Z,54.53
2018-03-03T08:03:05.033Z,65.80
2018-03-03T08:05:34.192Z,55.63
2018-03-03T08:08:03.365Z,52.00
2018-03-03T08:10:32.515Z,65.63
2018-03-03T08:13:01.709Z,57.17
2018-03-03T08:15:30.874Z,57.57
2018-03-03T08:18:00.026Z,58.73
2018-03-03T08:20:29.174Z,60.10
2018-03-03T08:22:58.344Z,55.57
2018-03-03T08:25:27.485Z,52.63
2018-03-03T08:27:56.632Z,54.20
2018-03-03T08:30:26.265Z,108.07
2018-03-03T08:32:55.409Z,57.13
2018-03-03T08:35:24.542Z,53.90
2018-03-03T08:37:53.709Z,51.97
2018-03-03T08:40:22.889Z,51.27
2018-03-03T08:42:52.026Z,55.00
2018-03-03T08:45:21.214Z,51.47
2018-03-03T08:47:50.347Z,59.27
2018-03-03T08:50:19.510Z,109.23
2018-03-03T08:52:48.702Z,54.17
2018-03-03T08:55:17.850Z,52.03
2018-03-03T08:57:47.029Z,50.40
2018-03-03T09:00:16.186Z,55.07
2018-03-03T09:02:45.662Z,48.53
2018-03-03T09:05:15.039Z,46.50
2018-03-03T09:07:44.194Z,64.33
2018-03-03T09:10:13.430Z,51.23
2018-03-03T09:12:42.574Z,88.37
2018-03-03T09:15:11.721Z,79.10
2018-03-03T09:17:40.922Z,89.07
2018-03-03T09:20:10.069Z,116.57
2018-03-03T09:22:39.222Z,53.93
2018-03-03T09:25:08.400Z,60.73
2018-03-03T09:27:37.551Z,52.77
2018-03-03T09:30:06.699Z,44.83
2018-03-03T09:32:36.312Z,47.03
2018-03-03T09:35:05.463Z,45.87
2018-03-03T09:37:34.614Z,52.30
2018-03-03T09:40:03.796Z,49.90
2018-03-03T09:42:32.955Z,43.30
2018-03-03T09:45:02.113Z,43.97
2018-03-03T09:47:31.287Z,47.10
2018-03-03T09:50:00.431Z,43.87
2018-03-03T09:52:29.613Z,42.07
2018-03-03T09:54:58.770Z,45.00
2018-03-03T09:57:27.945Z,45.50
2018-03-03T09:59:57.092Z,46.33
2018-03-03T10:02:26.297Z,54.03
2018-03-03T10:04:55.446Z,44.57
2018-03-03T10:07:24.616Z,41.20
2018-03-03T10:09:53.803Z,44.80
2018-03-03T10:12:22.954Z,48.37
2018-03-03T10:14:52.150Z,46.23
2018-03-03T10:17:21.333Z,46.63
2018-03-03T10:19:50.474Z,37.47
2018-03-03T10:22:19.622Z,37.90
2018-03-03T10:24:48.801Z,36.50
2018-03-03T10:27:18.049Z,41.07
2018-03-03T10:29:47.087Z,39.07
2018-03-03T10:32:16.270Z,38.60
2018-03-03T10:34:45.452Z,38.73
2018-03-03T10:37:14.633Z,39.60
2018-03-03T10:39:43.811Z,37.27
2018-03-03T10:42:12.933Z,38.20
2018-03-03T10:44:42.136Z,38.63
2018-03-03T10:47:11.276Z,48.53
2018-03-03T10:49:40.644Z,36.67
2018-03-03T10:52:09.802Z,38.70
2018-03-03T10:54:38.934Z,37.60
2018-03-03T10:57:08.081Z,40.27
2018-03-03T10:59:37.259Z,66.00
2018-03-03T11:02:06.416Z,41.20
2018-03-03T11:04:35.569Z,45.07
2018-03-03T11:07:04.752Z,43.20
2018-03-03T11:09:33.898Z,40.97
2018-03-03T11:12:03.050Z,38.63
2018-03-03T11:14:32.213Z,61.70
2018-03-03T11:17:01.406Z,38.30
2018-03-03T11:19:30.533Z,38.93
2018-03-03T11:21:59.722Z,39.90
2018-03-03T11:24:28.902Z,42.80
2018-03-03T11:26:58.091Z,46.27
2018-03-03T11:29:27.244Z,45.50
2018-03-03T11:31:56.383Z,38.30
2018-03-03T11:34:25.564Z,37.33
2018-03-03T11:36:54.706Z,41.50
2018-03-03T11:39:23.850Z,40.73
2018-03-03T11:41:53.066Z,47.80
2018-03-03T11:44:22.173Z,47.67
2018-03-03T11:46:51.318Z,45.40
2018-03-03T11:49:20.500Z,48.33
2018-03-03T11:51:49.692Z,45.17
2018-03-03T11:54:18.879Z,43.57
2018-03-03T11:56:48.025Z,68.37
2018-03-03T11:59:17.185Z,45.67
2018-03-03T12:01:46.361Z,39.50
2018-03-03T12:04:15.514Z,45.63
2018-03-03T12:06:44.662Z,44.77
2018-03-03T12:09:13.836Z,45.13
2018-03-03T12:11:42.978Z,44.03
2018-03-03T12:14:12.128Z,43.17
2018-03-03T12:16:41.302Z,41.33
2018-03-03T12:19:10.463Z,31.10
2018-03-03T12:21:39.610Z,35.30
2018-03-03T12:24:08.786Z,37.80
2018-03-03T12:26:37.933Z,35.47
2018-03-03T12:29:07.069Z,37.80
2018-03-03T12:31:36.566Z,34.77
2018-03-03T12:34:05.714Z,28.33
2018-03-03T12:36:34.853Z,32.03
2018-03-03T12:39:04.058Z,37.67
2018-03-03T12:41:33.257Z,37.20
2018-03-03T12:44:02.414Z,43.23
2018-03-03T12:46:31.562Z,44.93
2018-03-03T12:49:00.745Z,36.27
2018-03-03T12:51:29.885Z,37.70
2018-03-03T12:53:59.010Z,31.57
2018-03-03T12:56:28.173Z,31.83
2018-03-03T12:58:57.319Z,29.63
2018-03-03T13:01:26.484Z,23.93
2018-03-03T13:03:55.660Z,24.27
2018-03-03T13:06:24.815Z,21.13
2018-03-03T13:08:53.971Z,22.73
2018-03-03T13:11:23.153Z,22.80
2018-03-03T13:13:52.310Z,20.80
2018-03-03T13:16:21.458Z,19.23
2018-03-03T13:18:50.645Z,19.30
2018-03-03T13:21:19.804Z,19.93
2018-03-03T13:23:49.068Z,19.70
2018-03-03T13:26:18.256Z,19.70
2018-03-03T13:28:47.469Z,20.10
2018-03-03T13:31:16.636Z,19.80
2018-03-03T13:33:45.813Z,19.13
2018-03-03T13:36:14.954Z,18.67
2018-03-03T13:38:44.161Z,19.27
2018-03-03T13:41:13.326Z,17.53
2018-03-03T13:43:42.484Z,20.80
2018-03-03T13:46:11.649Z,24.30
2018-03-03T13:48:40.802Z,23.10
2018-03-03T13:51:09.943Z,22.50
2018-03-03T13:53:39.106Z,22.23
2018-03-03T13:56:08.253Z,24.70
2018-03-03T13:58:37.413Z,28.70
2018-03-03T14:01:06.613Z,40.93
2018-03-03T14:03:35.781Z,35.70
2018-03-03T14:06:04.945Z,35.93
2018-03-03T14:08:34.085Z,36.23
2018-03-03T14:11:03.235Z,29.97
2018-03-03T14:13:32.396Z,28.27
2018-03-03T14:16:01.567Z,44.80
2018-03-03T14:18:30.717Z,36.63
2018-03-03T14:20:59.849Z,43.13
2018-03-03T14:23:29.030Z,32.03
2018-03-03T14:25:58.173Z,30.57
2018-03-03T14:28:27.322Z,53.40
2018-03-03T14:30:56.518Z,35.47
2018-03-03T14:33:25.663Z,38.73
2018-03-03T14:35:54.828Z,55.83
2018-03-03T14:38:24.005Z,38.70
2018-03-03T14:40:53.225Z,42.03
2018-03-03T14:43:22.576Z,40.97
2018-03-03T14:45:51.780Z,43.40
2018-03-03T14:48:20.921Z,40.53
2018-03-03T14:50:50.057Z,42.43
2018-03-03T14:53:19.246Z,41.57
2018-03-03T14:55:48.399Z,36.63
2018-03-03T14:58:17.547Z,38.30
2018-03-03T15:00:46.713Z,36.83
2018-03-03T15:03:15.863Z,39.47
2018-03-03T15:05:45.006Z,37.53
2018-03-03T15:08:14.200Z,37.57
2018-03-03T15:10:43.337Z,38.00
2018-03-03T15:13:12.499Z,38.33
2018-03-03T15:15:41.654Z,39.00
2018-03-03T15:18:10.798Z,34.97
2018-03-03T15:20:39.943Z,34.10
2018-03-03T15:23:09.111Z,39.20
2018-03-03T15:25:38.274Z,36.90
2018-03-03T15:28:07.413Z,38.20
2018-03-03T15:30:36.606Z,36.23
2018-03-03T15:33:05.748Z,37.57
2018-03-03T15:35:34.893Z,36.33
2018-03-03T15:38:04.043Z,36.50
2018-03-03T15:40:33.186Z,34.87
2018-03-03T15:43:02.347Z,36.90
2018-03-03T15:45:32.021Z,36.70
2018-03-03T15:48:01.169Z,37.00
2018-03-03T15:50:30.369Z,40.20
2018-03-03T15:52:59.534Z,38.60
2018-03-03T15:55:28.698Z,37.23
2018-03-03T15:57:57.865Z,36.90
2018-03-03T16:00:27.014Z,36.57
2018-03-03T16:02:56.167Z,37.00
2018-03-03T16:05:25.336Z,35.30
2018-03-03T16:07:54.498Z,40.93
2018-03-03T16:10:23.649Z,35.73
2018-03-03T16:12:52.853Z,37.37
2018-03-03T16:15:21.985Z,35.80
2018-03-03T16:17:51.143Z,45.73
2018-03-03T16:20:20.322Z,38.80
2018-03-03T16:22:49.465Z,42.47
2018-03-03T16:25:18.609Z,43.83
2018-03-03T16:27:47.786Z,42.30
2018-03-03T16:30:16.943Z,44.30
2018-03-03T16:32:46.084Z,40.60
2018-03-03T16:35:15.257Z,42.43
2018-03-03T16:37:44.404Z,41.83
2018-03-03T16:40:13.558Z,42.00
2018-03-03T16:42:42.862Z,47.83
2018-03-03T16:45:12.008Z,41.90
2018-03-03T16:47:41.697Z,43.03
2018-03-03T16:50:10.900Z,40.30
2018-03-03T16:52:40.049Z,39.40
2018-03-03T16:55:09.208Z,43.20
2018-03-03T16:57:38.428Z,43.10
2018-03-03T17:00:07.566Z,42.27
2018-03-03T17:02:36.728Z,41.70
2018-03-03T17:05:05.917Z,41.63
2018-03-03T17:07:35.056Z,42.50
2018-03-03T17:10:04.210Z,43.00
2018-03-03T17:12:33.370Z,41.80
2018-03-03T17:15:02.514Z,41.53
2018-03-03T17:17:31.670Z,43.33
2018-03-03T17:20:00.839Z,44.53
2018-03-03T17:22:29.995Z,41.20
2018-03-03T17:24:59.138Z,43.20
2018-03-03T17:27:28.329Z,45.17
2018-03-03T17:29:57.489Z,47.27
2018-03-03T17:32:26.671Z,46.30
2018-03-03T17:34:55.810Z,42.97
2018-03-03T17:37:25.029Z,43.47
2018-03-03T17:39:54.166Z,42.97
2018-03-03T17:42:23.318Z,43.57
2018-03-03T17:44:52.491Z,44.30
2018-03-03T17:47:21.638Z,41.60
2018-03-03T17:49:50.806Z,40.50
2018-03-03T17:52:20.003Z,41.70
2018-03-03T17:54:49.213Z,42.60
2018-03-03T17:57:18.350Z,38.93
2018-03-03T17:59:47.506Z,39.07
2018-03-03T18:02:16.695Z,40.33
2018-03-03T18:04:45.848Z,41.80
2018-03-03T18:07:14.997Z,43.23
2018-03-03T18:09:44.174Z,38.40
2018-03-03T18:12:13.339Z,42.37
2018-03-03T18:14:42.483Z,38.83
2018-03-03T18:17:11.665Z,40.23
2018-03-03T18:19:40.799Z,38.53
2018-03-03T18:22:09.943Z,37.93
2018-03-03T18:24:39.108Z,39.33
2018-03-03T18:27:08.292Z,39.90
2018-03-03T18:29:37.440Z,35.83
2018-03-03T18:32:06.578Z,35.50
2018-03-03T18:34:35.757Z,36.83
2018-03-03T18:37:04.923Z,36.50
2018-03-03T18:39:34.063Z,35.13
2018-03-03T18:42:03.239Z,36.93
2018-03-03T18:44:32.394Z,36.87
2018-03-03T18:47:01.565Z,39.90
2018-03-03T18:49:30.716Z,37.20
2018-03-03T18:51:59.861Z,38.40
2018-03-03T18:54:29.054Z,42.03
2018-03-03T18:56:58.270Z,40.00
2018-03-03T18:59:27.438Z,36.67
2018-03-03T19:01:56.628Z,37.47
2018-03-03T19:04:25.858Z,35.63
2018-03-03T19:06:54.973Z,36.03
2018-03-03T19:09:24.122Z,36.40
2018-03-03T19:11:53.338Z,32.70
2018-03-03T19:14:22.475Z,38.23
2018-03-03T19:16:51.606Z,40.33
2018-03-03T19:19:20.783Z,41.07
2018-03-03T19:21:49.940Z,39.80
2018-03-03T19:24:19.097Z,43.07
2018-03-03T19:26:48.289Z,40.77
2018-03-03T19:29:17.561Z,40.47
2018-03-03T19:31:46.710Z,43.13
2018-03-03T19:34:15.908Z,45.83
2018-03-03T19:36:45.053Z,45.80
2018-03-03T19:39:14.206Z,50.20
2018-03-03T19:41:43.392Z,49.20
2018-03-03T19:44:12.580Z,53.33
2018-03-03T19:46:41.721Z,52.20
2018-03-03T19:49:10.901Z,55.20
2018-03-03T19:51:40.043Z,56.23
2018-03-03T19:54:09.194Z,62.20
2018-03-03T19:56:38.382Z,63.70
2018-03-03T19:59:07.561Z,57.90
2018-03-03T20:01:36.708Z,56.17
2018-03-03T20:04:05.851Z,59.73
2018-03-03T20:06:35.048Z,56.50
2018-03-03T20:09:04.203Z,57.70
2018-03-03T20:11:33.382Z,63.40
2018-03-03T20:14:02.562Z,67.13
2018-03-03T20:16:31.715Z,61.73
2018-03-03T20:19:00.858Z,69.37
2018-03-03T20:21:30.036Z,63.43
2018-03-03T20:23:59.176Z,66.17
2018-03-03T20:26:28.323Z,66.50
2018-03-03T20:28:57.521Z,63.20
2018-03-03T20:31:26.703Z,70.00
2018-03-03T20:33:55.861Z,68.57
2018-03-03T20:36:25.006Z,70.80
2018-03-03T20:38:54.199Z,69.87
2018-03-03T20:41:23.400Z,69.80
2018-03-03T20:43:52.549Z,69.70
2018-03-03T20:46:21.689Z,86.53
2018-03-03T20:48:50.876Z,75.90
2018-03-03T20:51:20.023Z,84.47
2018-03-03T20:53:49.174Z,79.43
2018-03-03T20:56:18.347Z,82.50
2018-03-03T20:58:47.526Z,77.63
2018-03-03T21:01:16.690Z,95.03
2018-03-03T21:03:45.840Z,91.27
2018-03-03T21:06:15.002Z,87.33
2018-03-03T21:08:44.146Z,93.60
2018-03-03T21:11:31.029Z,92.70
2018-03-03T21:14:00.178Z,88.83
2018-03-03T21:16:29.340Z,135.60
2018-03-03T21:18:58.535Z,112.00
2018-03-03T21:21:27.694Z,135.33
2018-03-03T21:23:57.204Z,105.73
2018-03-03T21:26:26.429Z,105.67
2018-03-03T21:28:55.570Z,118.57
2018-03-03T21:31:24.723Z,103.20
2018-03-03T21:33:54.122Z,96.00
2018-03-03T21:36:23.284Z,93.30
2018-03-03T21:38:52.430Z,111.50
2018-03-03T21:41:21.663Z,104.67
2018-03-03T21:43:50.816Z,92.47
2018-03-03T21:46:19.966Z,97.90
2018-03-03T21:48:49.139Z,99.03
2018-03-03T21:51:18.396Z,127.70
2018-03-03T21:53:47.553Z,88.80
2018-03-03T21:56:16.738Z,106.73
2018-03-03T21:58:45.894Z,93.20
2018-03-03T22:01:15.047Z,87.47
2018-03-03T22:03:44.241Z,95.33
2018-03-03T22:06:13.385Z,75.83
2018-03-03T22:08:42.575Z,84.27
2018-03-03T22:11:11.852Z,89.83
2018-03-03T22:13:40.996Z,85.23
2018-03-03T22:16:10.146Z,82.70
2018-03-03T22:18:39.366Z,83.10
2018-03-03T22:21:08.505Z,80.53
2018-03-03T22:23:37.638Z,85.07
2018-03-03T22:26:06.824Z,80.23
2018-03-03T22:28:35.975Z,80.90
2018-03-03T22:31:05.154Z,71.07
2018-03-03T22:33:34.297Z,79.20
2018-03-03T22:36:03.466Z,100.30
2018-03-03T22:38:32.685Z,73.10
2018-03-03T22:41:03.107Z,71.03
2018-03-03T22:43:32.258Z,68.90
2018-03-03T22:46:01.442Z,77.03
2018-03-03T22:48:30.662Z,65.53
2018-03-03T22:50:59.858Z,67.20
2018-03-03T22:53:28.990Z,68.03
2018-03-03T22:55:58.141Z,100.10
2018-03-03T22:58:27.313Z,68.30
2018-03-03T23:00:56.579Z,88.47
2018-03-03T23:03:25.761Z,75.57
2018-03-03T23:05:54.949Z,70.17
2018-03-03T23:08:24.078Z,66.77
2018-03-03T23:10:53.279Z,63.17
2018-03-03T23:13:22.419Z,69.10
2018-03-03T23:15:51.551Z,62.37
2018-03-03T23:18:20.713Z,59.10
2018-03-03T23:20:49.865Z,66.10
2018-03-03T23:23:19.024Z,71.67
2018-03-03T23:25:48.204Z,90.87
2018-03-03T23:28:17.620Z,66.27
2018-03-03T23:30:46.961Z,62.93
2018-03-03T23:33:16.127Z,63.17
2018-03-03T23:35:45.326Z,69.10
2018-03-03T23:38:14.611Z,68.23
2018-03-03T23:40:43.773Z,61.10
2018-03-03T23:43:12.926Z,58.00
2018-03-03T23:45:42.091Z,56.03
2018-03-03T23:48:11.418Z,60.93
2018-03-03T23:50:40.572Z,62.10
2018-03-03T23:53:09.745Z,57.50
2018-03-03T23:55:38.890Z,55.80
2018-03-03T23:58:08.028Z,58.20
